Time;durP1;ratioP1;P1;durP2;ratioP2;P2;SDS_P1;SDS_P2;PMS_P1;PMS_P2;Temp;Humidity;BMP_temperature;BMP_pressure;BME280_temperature;BME280_humidity;BME280_pressure;Samples;Min_cycle;Max_cycle;Signal;HPM_P1;HPM_P2
2022/07/10 00:00:37;;;;;;;3.83;1.75;;;17.50;99.90;;;;;;5075496;28;20025;-78
2022/07/10 00:03:04;;;;;;;3.60;2.40;;;17.50;99.90;;;;;;5075242;28;20025;-78
2022/07/10 00:05:30;;;;;;;7.10;1.98;;;17.50;99.90;;;;;;5075389;28;20360;-79
2022/07/10 00:07:56;;;;;;;7.22;2.17;;;17.40;99.90;;;;;;5075700;28;20039;-78
2022/07/10 00:10:23;;;;;;;5.22;2.30;;;17.40;99.90;;;;;;5074070;28;20382;-78
2022/07/10 00:12:51;;;;;;;2.63;2.00;;;17.40;99.90;;;;;;5075510;28;20039;-79
2022/07/10 00:15:18;;;;;;;10.30;1.90;;;17.30;99.90;;;;;;5075214;28;20025;-79
2022/07/10 00:17:44;;;;;;;5.38;2.50;;;17.30;99.90;;;;;;5073583;28;20032;-79
2022/07/10 00:20:11;;;;;;;2.50;1.85;;;17.20;99.90;;;;;;5075504;28;20029;-80
2022/07/10 00:22:38;;;;;;;3.10;1.70;;;17.20;99.90;;;;;;5075045;28;20387;-78
2022/07/10 00:25:05;;;;;;;2.90;2.22;;;17.20;99.90;;;;;;5073933;28;20098;-78
2022/07/10 00:27:31;;;;;;;10.43;2.65;;;17.20;99.90;;;;;;5073729;28;20055;-79
2022/07/10 00:29:57;;;;;;;7.43;2.10;;;17.20;99.90;;;;;;5075421;28;20024;-79
2022/07/10 00:32:23;;;;;;;6.10;2.53;;;17.10;99.90;;;;;;5074876;28;20060;-78
2022/07/10 00:34:49;;;;;;;5.40;2.30;;;17.10;99.90;;;;;;5074572;28;20119;-78
2022/07/10 00:37:15;;;;;;;3.90;2.05;;;17.10;99.90;;;;;;5074874;28;20075;-79
2022/07/10 00:39:41;;;;;;;7.40;2.13;;;17.10;99.90;;;;;;5073848;28;20467;-79
2022/07/10 00:42:13;;;;;;;2.30;1.92;;;17.00;99.90;;;;;;5075093;28;20360;-78
2022/07/10 00:44:39;;;;;;;7.75;2.63;;;17.00;99.90;;;;;;5073356;28;20028;-79
2022/07/10 00:47:06;;;;;;;2.90;2.33;;;16.90;99.90;;;;;;5074593;28;20039;-79
2022/07/10 00:49:36;;;;;;;5.40;2.30;;;16.90;99.90;;;;;;5073550;28;20129;-79
2022/07/10 00:52:09;;;;;;;4.57;2.03;;;16.90;99.90;;;;;;5074605;28;20039;-79
2022/07/10 00:54:37;;;;;;;5.75;2.22;;;16.90;99.90;;;;;;5074494;28;20024;-78
2022/07/10 00:57:07;;;;;;;4.80;2.47;;;16.80;99.90;;;;;;5075008;28;20029;-78
2022/07/10 00:59:34;;;;;;;3.40;2.33;;;16.90;99.90;;;;;;5074653;28;20024;-79
2022/07/10 01:02:02;;;;;;;5.07;2.40;;;16.80;99.90;;;;;;5074606;28;20033;-79
2022/07/10 01:04:29;;;;;;;3.53;2.53;;;16.70;99.90;;;;;;5074551;28;20052;-79
2022/07/10 01:06:54;;;;;;;2.70;2.10;;;16.70;99.90;;;;;;5072936;28;20455;-78
2022/07/10 01:09:20;;;;;;;3.08;2.30;;;16.70;99.90;;;;;;5074491;28;20031;-79
2022/07/10 01:11:46;;;;;;;9.00;2.72;;;16.60;99.90;;;;;;5074083;28;20025;-78
2022/07/10 01:14:13;;;;;;;4.03;2.38;;;16.60;99.90;;;;;;5074075;28;20459;-79
2022/07/10 01:16:39;;;;;;;4.03;2.15;;;16.60;99.90;;;;;;5073060;28;20463;-78
2022/07/10 01:19:06;;;;;;;3.67;2.08;;;16.60;99.90;;;;;;5074327;28;20027;-80
2022/07/10 01:21:36;;;;;;;5.43;2.10;;;16.60;99.90;;;;;;5073899;28;20028;-78
2022/07/10 01:24:09;;;;;;;6.60;2.50;;;16.60;99.90;;;;;;5073247;28;20047;-78
2022/07/10 01:26:35;;;;;;;2.65;2.13;;;16.50;99.90;;;;;;5074185;28;20515;-80
2022/07/10 01:29:06;;;;;;;2.35;1.85;;;16.50;99.90;;;;;;5074307;28;20044;-79
2022/07/10 01:31:33;;;;;;;5.20;2.38;;;16.50;99.90;;;;;;5074038;28;20115;-79
2022/07/10 01:34:00;;;;;;;4.32;2.35;;;16.50;99.90;;;;;;5073896;28;20028;-79
2022/07/10 01:36:29;;;;;;;3.90;2.30;;;16.50;99.90;;;;;;5074307;28;20158;-79
2022/07/10 01:38:56;;;;;;;4.38;1.92;;;16.50;99.90;;;;;;5073752;28;20395;-78
2022/07/10 01:41:23;;;;;;;5.53;2.50;;;16.60;99.90;;;;;;5073383;28;20036;-78
2022/07/10 01:43:49;;;;;;;4.30;2.30;;;16.50;99.90;;;;;;5074350;28;20033;-78
2022/07/10 01:46:16;;;;;;;2.53;2.17;;;16.40;99.90;;;;;;5073101;28;20025;-78
2022/07/10 01:48:42;;;;;;;4.80;1.83;;;16.30;99.90;;;;;;5073318;28;20476;-78
2022/07/10 01:51:09;;;;;;;5.85;2.25;;;16.30;99.90;;;;;;5073889;28;20031;-79
2022/07/10 01:53:35;;;;;;;5.82;2.13;;;16.30;99.90;;;;;;5073859;28;20107;-79
2022/07/10 01:56:05;;;;;;;4.07;2.08;;;16.30;99.90;;;;;;5073578;28;20491;-78
2022/07/10 01:58:30;;;;;;;4.95;2.13;;;16.30;99.90;;;;;;5073790;28;20031;-80
2022/07/10 02:00:56;;;;;;;3.55;2.00;;;16.30;99.90;;;;;;5073610;28;20033;-79
2022/07/10 02:06:07;;;;;;;5.80;2.00;;;16.20;99.90;;;;;;5073519;28;20035;-78
2022/07/10 02:08:33;;;;;;;8.95;2.40;;;16.20;99.90;;;;;;5073378;28;20028;-79
2022/07/10 02:10:59;;;;;;;4.60;2.45;;;16.10;99.90;;;;;;5072518;28;20496;-79
2022/07/10 02:13:27;;;;;;;5.20;1.85;;;16.20;99.90;;;;;;5073680;28;20115;-78
2022/07/10 02:15:56;;;;;;;7.93;2.17;;;16.20;99.90;;;;;;5072056;28;20063;-80
2022/07/10 02:18:22;;;;;;;5.60;2.15;;;16.10;99.90;;;;;;5073578;28;20463;-79
2022/07/10 02:20:48;;;;;;;4.45;2.28;;;16.00;99.90;;;;;;5073308;28;20020;-78
2022/07/10 02:23:15;;;;;;;7.20;2.08;;;16.10;99.90;;;;;;5073048;28;20024;-79
2022/07/10 02:25:40;;;;;;;3.67;2.08;;;16.00;99.90;;;;;;5073311;28;20176;-77
2022/07/10 02:28:08;;;;;;;6.60;3.78;;;15.90;99.90;;;;;;5071981;28;20135;-78
2022/07/10 02:30:34;;;;;;;5.20;2.50;;;15.90;99.90;;;;;;5071875;28;20440;-77
2022/07/10 02:33:00;;;;;;;3.97;2.25;;;15.80;99.90;;;;;;5073446;28;20094;-78
2022/07/10 02:35:25;;;;;;;5.50;2.40;;;15.80;99.90;;;;;;5073549;28;20382;-79
2022/07/10 02:37:51;;;;;;;2.85;2.28;;;15.80;99.90;;;;;;5071828;28;20028;-78
2022/07/10 02:40:17;;;;;;;4.10;2.40;;;15.80;99.90;;;;;;5073627;28;20029;-79
2022/07/10 02:42:43;;;;;;;7.80;2.30;;;15.70;99.90;;;;;;5072674;28;20082;-78
2022/07/10 02:45:09;;;;;;;6.43;2.22;;;15.80;99.90;;;;;;5073404;28;20533;-79
2022/07/10 02:47:34;;;;;;;7.22;2.47;;;15.70;99.90;;;;;;5073055;28;20028;-78
2022/07/10 02:50:00;;;;;;;4.47;1.83;;;15.70;99.90;;;;;;5073713;28;20066;-78
2022/07/10 02:52:26;;;;;;;3.55;1.90;;;15.70;99.90;;;;;;5072908;28;20031;-78
2022/07/10 02:54:52;;;;;;;4.68;1.90;;;15.80;99.90;;;;;;5073354;28;20108;-78
2022/07/10 02:57:18;;;;;;;4.40;2.50;;;15.80;99.90;;;;;;5072861;28;20025;-77
2022/07/10 02:59:44;;;;;;;3.10;1.98;;;15.80;99.90;;;;;;5077053;28;20063;-78
2022/07/10 03:02:10;;;;;;;5.32;2.05;;;15.80;99.90;;;;;;5076952;28;20479;-78
2022/07/10 03:04:36;;;;;;;6.85;2.05;;;15.80;99.90;;;;;;5075287;28;20494;-79
2022/07/10 03:07:01;;;;;;;7.03;2.20;;;15.80;99.90;;;;;;5075474;28;20029;-79
2022/07/10 03:09:27;;;;;;;7.57;2.03;;;15.80;99.90;;;;;;5075476;28;20025;-78
2022/07/10 03:11:53;;;;;;;5.60;2.08;;;15.80;99.90;;;;;;5076591;28;20036;-78
2022/07/10 03:14:19;;;;;;;4.88;1.77;;;15.90;99.90;;;;;;5076714;28;20043;-78
2022/07/10 03:16:44;;;;;;;3.67;1.75;;;15.90;99.90;;;;;;5076432;28;20044;-78
2022/07/10 03:19:10;;;;;;;2.60;1.55;;;15.90;99.90;;;;;;5076344;28;20059;-78
2022/07/10 03:21:36;;;;;;;4.30;1.85;;;16.00;99.90;;;;;;5076273;28;20067;-79
2022/07/10 03:24:02;;;;;;;4.63;1.75;;;16.00;99.90;;;;;;5075282;28;20082;-78
2022/07/10 03:26:29;;;;;;;3.58;1.50;;;16.10;99.90;;;;;;5076164;28;20024;-79
2022/07/10 03:28:58;;;;;;;4.00;1.80;;;16.20;99.90;;;;;;5074625;28;20048;-79
2022/07/10 03:31:24;;;;;;;3.35;1.55;;;16.20;99.90;;;;;;5076375;28;20039;-80
2022/07/10 03:33:49;;;;;;;4.85;1.70;;;16.30;99.90;;;;;;5076024;28;20107;-78
2022/07/10 03:36:15;;;;;;;3.17;1.67;;;16.30;99.90;;;;;;5076562;28;20031;-79
2022/07/10 03:38:41;;;;;;;2.72;1.73;;;16.40;99.90;;;;;;5076664;28;20025;-79
2022/07/10 03:41:07;;;;;;;5.63;1.90;;;16.40;99.90;;;;;;5075973;28;20025;-78
2022/07/10 03:43:33;;;;;;;4.63;1.67;;;16.50;99.90;;;;;;5075905;28;20059;-78
2022/07/10 03:45:59;;;;;;;2.85;2.13;;;16.50;99.90;;;;;;5075861;28;20505;-78
2022/07/10 03:48:24;;;;;;;2.83;2.50;;;16.60;99.90;;;;;;5074480;28;20040;-78
2022/07/10 03:50:51;;;;;;;5.35;1.63;;;16.60;99.90;;;;;;5076042;28;20029;-78
2022/07/10 03:53:17;;;;;;;2.05;1.60;;;16.70;99.90;;;;;;5075320;28;20044;-79
2022/07/10 03:55:43;;;;;;;5.25;2.00;;;16.80;99.90;;;;;;5076236;28;20032;-78
2022/07/10 03:58:09;;;;;;;7.63;1.65;;;16.80;99.90;;;;;;5075910;28;20473;-78
2022/07/10 04:00:37;;;;;;;4.53;1.83;;;16.90;99.90;;;;;;5075850;28;20029;-78
2022/07/10 04:03:07;;;;;;;4.22;1.90;;;17.00;99.90;;;;;;5074534;28;20028;-78
2022/07/10 04:05:34;;;;;;;4.20;2.05;;;17.00;99.90;;;;;;5075703;28;20033;-78
2022/07/10 04:08:01;;;;;;;5.47;1.83;;;17.10;99.90;;;;;;5075705;28;20109;-78
2022/07/10 04:10:29;;;;;;;4.32;1.73;;;17.20;99.90;;;;;;5073698;28;20424;-79
2022/07/10 04:12:55;;;;;;;3.30;1.98;;;17.20;99.90;;;;;;5075276;28;20064;-77
2022/07/10 04:15:22;;;;;;;3.40;1.60;;;17.30;99.90;;;;;;5073898;28;20372;-77
2022/07/10 04:17:48;;;;;;;2.47;1.60;;;17.30;99.90;;;;;;5075450;28;20453;-77
2022/07/10 04:20:15;;;;;;;4.18;2.08;;;17.30;99.90;;;;;;5075424;28;20025;-76
2022/07/10 04:22:41;;;;;;;2.92;1.90;;;17.40;99.90;;;;;;5075168;28;20059;-76
2022/07/10 04:25:07;;;;;;;4.57;2.10;;;17.50;99.90;;;;;;5075470;28;20064;-76
2022/07/10 04:27:33;;;;;;;2.20;1.67;;;17.50;99.90;;;;;;5075167;28;20542;-77
2022/07/10 04:29:59;;;;;;;6.00;1.88;;;17.60;99.90;;;;;;5074656;28;20107;-78
2022/07/10 04:32:25;;;;;;;3.72;1.70;;;17.60;99.90;;;;;;5075096;28;20025;-78
2022/07/10 04:34:51;;;;;;;4.20;2.47;;;17.70;99.90;;;;;;5075063;28;20517;-78
2022/07/10 04:37:17;;;;;;;5.57;2.75;;;17.70;99.90;;;;;;5073471;28;20036;-78
2022/07/10 04:39:42;;;;;;;2.10;1.77;;;17.80;99.90;;;;;;5075418;28;20111;-77
2022/07/10 04:42:08;;;;;;;2.15;1.80;;;17.90;99.90;;;;;;5074821;28;20470;-78
2022/07/10 04:44:36;;;;;;;3.60;2.10;;;18.00;99.90;;;;;;5074683;28;20029;-78
2022/07/10 04:47:03;;;;;;;4.03;1.70;;;18.00;99.90;;;;;;5073652;28;20035;-77
2022/07/10 04:49:29;;;;;;;5.70;1.92;;;18.10;99.90;;;;;;5074301;28;20028;-79
2022/07/10 04:51:56;;;;;;;4.93;3.35;;;18.10;99.90;;;;;;5074739;28;20107;-78
2022/07/10 04:54:22;;;;;;;3.67;1.60;;;18.20;99.90;;;;;;5073503;28;20024;-79
2022/07/10 04:56:48;;;;;;;4.85;2.15;;;18.20;99.90;;;;;;5074479;28;20069;-78
2022/07/10 04:59:14;;;;;;;5.65;1.83;;;18.30;99.90;;;;;;5074714;28;20035;-79
2022/07/10 05:01:40;;;;;;;4.10;2.40;;;18.40;99.90;;;;;;5074374;28;20028;-79
2022/07/10 05:04:06;;;;;;;2.40;2.00;;;18.50;99.90;;;;;;5074371;28;20470;-78
2022/07/10 05:06:32;;;;;;;2.35;1.95;;;18.50;99.90;;;;;;5074575;28;20036;-78
2022/07/10 05:08:59;;;;;;;3.45;1.98;;;18.60;99.90;;;;;;5074281;28;20052;-78
2022/07/10 05:11:25;;;;;;;4.63;2.47;;;18.60;99.90;;;;;;5074072;28;20036;-78
2022/07/10 05:13:51;;;;;;;3.05;2.40;;;18.60;99.90;;;;;;5074598;28;20028;-78
2022/07/10 05:16:18;;;;;;;11.30;2.20;;;18.70;99.90;;;;;;5074479;28;20474;-78
2022/07/10 05:18:56;;;;;;;3.05;2.10;;;18.80;99.90;;;;;;5073811;28;20020;-79
2022/07/10 05:21:25;;;;;;;2.78;1.80;;;18.80;99.90;;;;;;5073307;28;20029;-77
2022/07/10 05:23:51;;;;;;;5.45;1.75;;;18.90;99.90;;;;;;5071707;28;20025;-78
2022/07/10 05:26:16;;;;;;;4.38;2.38;;;19.00;99.90;;;;;;5072106;28;20025;-78
2022/07/10 05:28:42;;;;;;;2.55;1.63;;;18.90;99.90;;;;;;5073085;28;20086;-78
2022/07/10 05:31:08;;;;;;;3.45;2.33;;;19.00;99.90;;;;;;5072934;28;20031;-79
2022/07/10 05:33:34;;;;;;;6.78;2.22;;;19.00;99.90;;;;;;5072025;28;20118;-78
2022/07/10 05:36:00;;;;;;;4.53;2.03;;;19.10;99.90;;;;;;5073057;28;20455;-78
2022/07/10 05:38:25;;;;;;;5.15;1.95;;;19.20;99.90;;;;;;5071052;28;20020;-78
2022/07/10 05:40:53;;;;;;;6.55;2.13;;;19.30;99.90;;;;;;5073872;28;20029;-78
2022/07/10 05:43:19;;;;;;;2.42;1.90;;;19.40;99.90;;;;;;5073189;28;20312;-78
2022/07/10 05:45:44;;;;;;;3.15;1.75;;;19.50;99.90;;;;;;5071688;28;20086;-78
2022/07/10 05:48:10;;;;;;;5.20;1.80;;;19.40;99.90;;;;;;5073635;28;20103;-79
2022/07/10 05:50:36;;;;;;;2.10;1.67;;;19.40;99.90;;;;;;5072556;28;20375;-79
2022/07/10 05:53:02;;;;;;;2.75;2.03;;;19.30;99.90;;;;;;5073507;28;20032;-79
2022/07/10 05:55:28;;;;;;;2.50;1.67;;;19.20;99.90;;;;;;5072409;28;20029;-77
2022/07/10 05:57:54;;;;;;;2.17;1.58;;;19.30;99.90;;;;;;5072239;28;20029;-81
2022/07/10 06:00:20;;;;;;;4.72;1.70;;;19.50;99.90;;;;;;5072400;28;20379;-80
2022/07/10 06:02:46;;;;;;;3.05;1.83;;;19.70;99.90;;;;;;5073010;28;20040;-81
2022/07/10 06:05:12;;;;;;;5.18;1.83;;;19.90;99.90;;;;;;5073105;28;20025;-78
2022/07/10 06:07:37;;;;;;;2.83;1.58;;;20.00;99.90;;;;;;5072687;28;20032;-78
2022/07/10 06:10:05;;;;;;;3.42;1.60;;;20.10;99.90;;;;;;5073346;28;20503;-78
2022/07/10 06:12:31;;;;;;;4.60;1.40;;;20.30;99.90;;;;;;5073142;28;20150;-77
2022/07/10 06:14:57;;;;;;;2.72;1.50;;;20.40;99.90;;;;;;5072029;28;20124;-79
2022/07/10 06:17:23;;;;;;;4.10;1.52;;;20.30;99.90;;;;;;5073913;28;20458;-78
2022/07/10 06:19:48;;;;;;;3.88;1.60;;;20.40;99.90;;;;;;5073276;28;20037;-78
2022/07/10 06:22:33;;;;;;;2.03;1.73;;;20.60;99.90;;;;;;5071963;28;20082;-78
2022/07/10 06:25:04;;;;;;;2.50;1.70;;;20.60;99.90;;;;;;5073302;28;20386;-77
2022/07/10 06:27:31;;;;;;;1.65;1.45;;;20.70;99.90;;;;;;5072892;28;20048;-78
2022/07/10 06:29:57;;;;;;;4.07;1.60;;;20.70;99.90;;;;;;5071635;28;20102;-77
2022/07/10 06:32:24;;;;;;;3.05;1.45;;;20.80;99.90;;;;;;5072477;28;20051;-78
2022/07/10 06:34:51;;;;;;;6.85;2.67;;;21.00;99.90;;;;;;5075904;28;20032;-75
2022/07/10 06:37:17;;;;;;;3.50;2.40;;;21.20;99.90;;;;;;5075975;28;20443;-75
2022/07/10 06:39:44;;;;;;;3.47;2.88;;;21.30;99.90;;;;;;5076296;28;20074;-76
2022/07/10 06:42:10;;;;;;;1.83;1.30;;;21.30;99.90;;;;;;5075606;28;20094;-75
2022/07/10 06:44:35;;;;;;;3.78;1.33;;;21.40;99.90;;;;;;5075863;28;20443;-76
2022/07/10 06:49:48;;;;;;;3.58;3.00;;;21.60;99.90;;;;;;5074660;28;20031;-75
2022/07/10 06:52:13;;;;;;;2.80;2.60;;;21.70;99.90;;;;;;5075872;28;20341;-76
2022/07/10 06:54:39;;;;;;;3.50;2.65;;;21.70;97.20;;;;;;5075651;28;20518;-76
2022/07/10 06:57:06;;;;;;;2.92;2.63;;;21.80;98.40;;;;;;5075741;28;20053;-76
2022/07/10 06:59:31;;;;;;;3.33;2.70;;;21.80;98.50;;;;;;5075364;28;20024;-76
2022/07/10 07:01:57;;;;;;;3.45;2.90;;;22.00;98.60;;;;;;5075526;28;20433;-76
2022/07/10 07:04:23;;;;;;;4.82;3.28;;;22.20;99.10;;;;;;5074905;28;20024;-77
2022/07/10 07:06:49;;;;;;;8.07;3.67;;;22.30;96.70;;;;;;5075388;28;20090;-76
2022/07/10 07:09:14;;;;;;;3.35;3.05;;;22.30;94.80;;;;;;5075084;28;20029;-76
2022/07/10 07:11:40;;;;;;;2.50;2.30;;;22.20;93.20;;;;;;5075571;28;20028;-77
2022/07/10 07:14:06;;;;;;;3.70;3.40;;;21.90;93.80;;;;;;5075747;28;20055;-76
2022/07/10 07:16:39;;;;;;;3.20;2.90;;;21.90;95.80;;;;;;5075591;28;20022;-76
2022/07/10 07:19:05;;;;;;;3.75;3.45;;;22.00;96.10;;;;;;5075965;28;20020;-76
2022/07/10 07:24:19;;;;;;;4.07;3.67;;;;;;;;;;5073868;28;20027;-76
2022/07/10 07:26:49;;;;;;;4.25;3.92;;;22.70;92.80;;;;;;5076142;28;20497;-78
2022/07/10 07:29:15;;;;;;;4.72;4.20;;;22.80;91.80;;;;;;5076088;28;20060;-77
2022/07/10 07:31:41;;;;;;;5.38;4.88;;;22.90;90.00;;;;;;5075505;28;20054;-79
2022/07/10 07:34:07;;;;;;;6.57;4.50;;;23.00;90.20;;;;;;5075836;28;20108;-77
2022/07/10 07:36:33;;;;;;;4.50;4.10;;;23.10;90.80;;;;;;5075756;28;20048;-77
2022/07/10 07:38:59;;;;;;;7.22;5.35;;;23.20;90.20;;;;;;5075075;28;20052;-76
2022/07/10 07:41:25;;;;;;;5.50;5.00;;;23.20;88.50;;;;;;5075752;28;20443;-78
2022/07/10 07:43:52;;;;;;;2.53;2.15;;;23.20;84.30;;;;;;5075120;28;20020;-76
2022/07/10 07:46:19;;;;;;;4.18;3.78;;;23.30;85.10;;;;;;5075058;28;20023;-77
2022/07/10 07:48:45;;;;;;;4.43;4.03;;;23.10;80.50;;;;;;5076086;28;20029;-78
2022/07/10 07:51:11;;;;;;;4.68;4.20;;;23.20;82.80;;;;;;5074672;28;20028;-76
2022/07/10 07:53:37;;;;;;;4.82;4.53;;;23.50;83.30;;;;;;5075857;28;20037;-77
2022/07/10 07:56:03;;;;;;;4.70;4.40;;;23.60;81.80;;;;;;5075645;28;20360;-78
2022/07/10 07:58:29;;;;;;;6.30;3.00;;;23.50;79.30;;;;;;5075555;28;20029;-77
2022/07/10 08:00:56;;;;;;;3.03;2.83;;;23.20;78.10;;;;;;5075910;28;20029;-78
2022/07/10 08:03:22;;;;;;;3.25;1.77;;;22.90;78.50;;;;;;5075822;28;20028;-77
2022/07/10 08:05:49;;;;;;;2.28;2.08;;;23.00;80.70;;;;;;5075794;28;20032;-77
2022/07/10 08:08:15;;;;;;;2.40;2.03;;;23.10;82.80;;;;;;5075772;28;20031;-77
2022/07/10 08:10:41;;;;;;;3.28;1.15;;;23.20;81.20;;;;;;5075669;28;20020;-76
2022/07/10 08:13:07;;;;;;;5.07;3.22;;;23.30;81.50;;;;;;5075371;28;20028;-76
2022/07/10 08:15:34;;;;;;;5.75;3.20;;;23.40;79.70;;;;;;5073732;28;20074;-79
2022/07/10 08:18:03;;;;;;;3.85;3.55;;;23.50;78.80;;;;;;5074089;28;20070;-78
2022/07/10 08:20:30;;;;;;;4.80;4.50;;;23.60;75.30;;;;;;5070087;28;20119;-76
2022/07/10 08:22:56;;;;;;;5.28;4.95;;;23.80;75.90;;;;;;5073815;28;20386;-77
2022/07/10 08:25:23;;;;;;;5.68;5.13;;;24.00;74.90;;;;;;5073910;28;20021;-79
2022/07/10 08:27:49;;;;;;;4.75;4.38;;;24.20;73.10;;;;;;5073350;28;20043;-78
2022/07/10 08:30:15;;;;;;;2.42;2.22;;;24.00;69.00;;;;;;5074003;28;20027;-76
2022/07/10 08:32:41;;;;;;;2.35;2.15;;;23.70;68.80;;;;;;5073817;28;20033;-77
2022/07/10 08:35:08;;;;;;;4.05;3.72;;;23.70;69.10;;;;;;5070924;28;20025;-79
2022/07/10 08:37:42;;;;;;;4.05;3.75;;;23.60;69.30;;;;;;5072502;28;20493;-76
2022/07/10 08:40:13;;;;;;;3.40;3.10;;;23.50;70.10;;;;;;5073496;28;20029;-77
2022/07/10 08:42:40;;;;;;;3.97;2.70;;;23.40;73.50;;;;;;5073454;28;20060;-78
2022/07/10 08:45:07;;;;;;;3.70;3.13;;;23.40;72.90;;;;;;5073553;28;20066;-77
2022/07/10 08:47:38;;;;;;;3.53;2.85;;;23.50;75.30;;;;;;5073021;28;20782;-77
2022/07/10 08:50:04;;;;;;;3.20;2.90;;;23.60;75.40;;;;;;5073222;28;20420;-79
2022/07/10 08:53:09;;;;;;;5.20;4.70;;;23.60;72.50;;;;;;5073455;28;20032;-75
2022/07/10 08:55:36;;;;;;;4.53;4.20;;;23.90;71.40;;;;;;5071090;28;20059;-77
2022/07/10 08:58:06;;;;;;;4.32;3.92;;;23.90;72.20;;;;;;5074127;28;20032;-75
2022/07/10 09:00:32;;;;;;;2.60;2.40;;;23.90;72.70;;;;;;5074716;28;20024;-78
2022/07/10 09:02:58;;;;;;;3.90;3.33;;;24.00;71.30;;;;;;5074606;28;20055;-77
2022/07/10 09:05:25;;;;;;;4.90;3.67;;;24.20;72.90;;;;;;5074295;28;20356;-76
2022/07/10 09:07:53;;;;;;;3.90;3.60;;;24.20;67.80;;;;;;5074837;28;20024;-77
2022/07/10 09:10:20;;;;;;;4.30;3.88;;;;;;;;;;5074192;28;20029;-77
2022/07/10 09:12:50;;;;;;;4.10;3.80;;;;;;;;;;5074228;28;20475;-77
2022/07/10 09:15:17;;;;;;;4.72;4.43;;;;;;;;;;5072698;28;20024;-76
2022/07/10 09:17:57;;;;;;;6.82;6.18;;;;;;;;;;5073915;28;20522;-75
2022/07/10 09:20:29;;;;;;;6.72;6.32;;;;;;;;;;5074089;28;20020;-76
2022/07/10 09:22:57;;;;;;;5.20;4.90;;;;;;;;;;5073463;28;20028;-78
2022/07/10 09:25:25;;;;;;;8.48;4.65;;;;;;;;;;5074030;28;20016;-78
2022/07/10 09:27:54;;;;;;;5.25;4.95;;;;;;;;;;5073773;28;20060;-77
2022/07/10 09:30:37;;;;;;;2.15;0.88;;;;;;;;;;5073669;28;20086;-76
2022/07/10 09:33:22;;;;;;;4.60;4.30;;;;;;;;;;5074084;28;20025;-77
2022/07/10 09:38:46;;;;;;;3.72;3.42;;;;;;;;;;5073584;28;20020;-76
2022/07/10 09:41:12;;;;;;;3.85;3.55;;;;;;;;;;5073609;28;20013;-77
2022/07/10 09:44:01;;;;;;;4.22;3.92;;;;;;;;;;5073500;28;20122;-79
2022/07/10 09:46:28;;;;;;;3.30;1.20;;;;;;;;;;5068077;28;20036;-77
2022/07/10 09:49:04;;;;;;;3.35;3.05;;;;;;;;;;5074070;28;20025;-77
2022/07/10 09:51:34;;;;;;;4.05;3.83;;;;;;;;;;5073310;28;20111;-78
2022/07/10 09:54:02;;;;;;;3.80;3.58;;;;;;;;;;5073534;28;20036;-77
2022/07/10 09:56:31;;;;;;;5.40;5.00;;;;;;;;;;5073372;28;20021;-78
2022/07/10 09:59:00;;;;;;;5.30;4.90;;;;;;;;;;5072533;28;20024;-86
2022/07/10 10:01:27;;;;;;;5.78;5.47;;;;;;;;;;5073550;28;20460;-81
2022/07/10 10:03:54;;;;;;;6.50;6.00;;;;;;;;;;5072262;28;20021;-83
2022/07/10 10:06:21;;;;;;;6.60;6.20;;;;;;;;;;5072901;28;20031;-83
2022/07/10 10:09:08;;;;;;;6.50;6.05;;;;;;;;;;5072416;28;20352;-82
2022/07/10 10:11:36;;;;;;;5.97;5.43;;;;;;;;;;5071861;28;20016;-83
2022/07/10 10:14:03;;;;;;;7.50;6.85;;;;;;;;;;5072167;28;20379;-81
2022/07/10 10:16:30;;;;;;;7.70;7.20;;;;;;;;;;5073178;28;20023;-81
2022/07/10 10:21:41;;;;;;;5.72;5.35;;;;;;;;;;5073432;28;20106;-82
2022/07/10 10:24:07;;;;;;;7.47;6.97;;;;;;;;;;5071865;28;20020;-81
2022/07/10 10:26:34;;;;;;;7.68;7.07;;;;;;;;;;5072789;28;20382;-84
2022/07/10 10:29:01;;;;;;;4.93;4.53;;;;;;;;;;5073442;28;20041;-84
2022/07/10 10:31:28;;;;;;;6.32;4.10;;;;;;;;;;5071898;28;20027;-85
2022/07/10 10:33:55;;;;;;;5.93;5.05;;;;;;;;;;5073257;28;20044;-81
2022/07/10 10:36:41;;;;;;;5.47;5.18;;;;;;;;;;5071926;28;20021;-83
2022/07/10 10:39:16;;;;;;;6.18;5.70;;;;;;;;;;5072062;28;20039;-82
2022/07/10 10:41:45;;;;;;;5.65;5.25;;;;;;;;;;5072994;28;20020;-83
2022/07/10 10:44:13;;;;;;;3.20;3.00;;;;;;;;;;5073466;28;20020;-77
2022/07/10 10:46:54;;;;;;;5.93;5.50;;;;;;;;;;5073045;28;20051;-77
2022/07/10 10:49:24;;;;;;;5.75;5.28;;;;;;;;;;5073347;28;20108;-78
2022/07/10 10:52:04;;;;;;;7.35;6.72;;;;;;;;;;5072070;28;20036;-80
2022/07/10 10:54:31;;;;;;;7.40;6.80;;;;;;;;;;5071661;28;20036;-78
2022/07/10 10:57:13;;;;;;;6.50;6.10;;;;;;;;;;5072990;28;20029;-77
2022/07/10 10:59:46;;;;;;;6.53;6.13;;;;;;;;;;5073234;28;20028;-78
2022/07/10 11:02:23;;;;;;;53.35;9.25;;;;;;;;;;5071616;28;20094;-76
2022/07/10 11:05:18;;;;;;;6.55;6.05;;;;;;;;;;5073279;28;20021;-77
2022/07/10 11:07:56;;;;;;;6.45;6.00;;;;;;;;;;5054910;28;20091;-77
2022/07/10 11:10:36;;;;;;;5.60;5.25;;;;;;;;;;5071843;28;20013;-78
2022/07/10 11:13:07;;;;;;;6.60;6.10;;;;;;;;;;5073066;28;20483;-77
2022/07/10 11:15:34;;;;;;;5.95;5.40;;;;;;;;;;5072780;28;20033;-77
2022/07/10 11:18:05;;;;;;;6.13;5.50;;;;;;;;;;5072758;28;20099;-78
2022/07/10 11:20:38;;;;;;;6.57;6.07;;;;;;;;;;5075817;28;20077;-78
2022/07/10 11:23:10;;;;;;;6.55;5.68;;;;;;;;;;5075647;28;20024;-78
2022/07/10 11:25:42;;;;;;;4.90;4.50;;;;;;;;;;5076511;28;20105;-78
2022/07/10 11:28:09;;;;;;;1.85;1.67;;;;;;;;;;5076243;28;20055;-79
2022/07/10 11:30:44;;;;;;;3.03;2.60;;;;;;;;;;5076116;28;20025;-80
2022/07/10 11:33:10;;;;;;;5.50;5.10;;;;;;;;;;5075064;28;20032;-78
2022/07/10 11:35:39;;;;;;;7.70;4.72;;;;;;;;;;5074790;28;20028;-76
2022/07/10 11:38:05;;;;;;;4.30;4.00;;;;;;;;;;5076375;28;20043;-77
2022/07/10 11:40:31;;;;;;;4.68;4.30;;;;;;;;;;5075948;28;20364;-78
2022/07/10 11:42:59;;;;;;;5.50;5.00;;;;;;;;;;5074639;28;20379;-79
2022/07/10 11:45:25;;;;;;;4.53;4.22;;;;;;;;;;5075886;28;20016;-78
2022/07/10 11:47:51;;;;;;;4.20;3.90;;;;;;;;;;5076131;28;20463;-78
2022/07/10 11:50:17;;;;;;;2.58;2.13;;;;;;;;;;5075837;28;20481;-78
2022/07/10 11:52:46;;;;;;;2.58;2.38;;;;;;;;;;5076013;28;20028;-78
2022/07/10 11:55:16;;;;;;;5.35;3.33;;;;;;;;;;5076040;28;20017;-78
2022/07/10 11:57:44;;;;;;;4.90;4.50;;;;;;;;;;5075463;28;20020;-77
2022/07/10 12:00:30;;;;;;;4.38;4.07;;;;;;;;;;5075969;28;20039;-78
2022/07/10 12:02:58;;;;;;;5.07;4.68;;;;;;;;;;5075859;28;20082;-78
2022/07/10 12:05:37;;;;;;;4.88;4.57;;;;;;;;;;5075336;28;20023;-77
2022/07/10 12:08:04;;;;;;;5.20;4.90;;;;;;;;;;5075909;28;20022;-78
2022/07/10 12:10:31;;;;;;;5.20;4.80;;;;;;;;;;5075441;28;20485;-78
2022/07/10 12:13:07;;;;;;;5.80;5.30;;;;;;;;;;5075336;28;20028;-78
2022/07/10 12:15:37;;;;;;;5.88;4.47;;;;;;;;;;5075881;28;20371;-78
2022/07/10 12:18:09;;;;;;;5.25;4.90;;;;;;;;;;5075025;28;20100;-78
2022/07/10 12:20:36;;;;;;;4.90;4.60;;;;;;;;;;5075285;28;20025;-78
2022/07/10 12:23:04;;;;;;;7.10;5.30;;;;;;;;;;5075504;28;20025;-78
2022/07/10 12:25:30;;;;;;;5.10;4.40;;;;;;;;;;5074790;28;20370;-78
2022/07/10 12:27:58;;;;;;;4.88;4.55;;;;;;;;;;5075350;28;20496;-79
2022/07/10 12:30:24;;;;;;;4.90;4.50;;;;;;;;;;5074488;28;20020;-79
2022/07/10 12:32:51;;;;;;;5.68;5.28;;;;;;;;;;5074999;28;20017;-77
2022/07/10 12:35:19;;;;;;;5.20;4.80;;;;;;;;;;5073944;28;20470;-77
2022/07/10 12:37:49;;;;;;;5.18;4.88;;;;;;;;;;5075203;28;20024;-79
2022/07/10 12:40:30;;;;;;;5.47;5.07;;;;;;;;;;5074825;28;20032;-78
2022/07/10 12:43:03;;;;;;;6.32;5.93;;;;;;;;;;5073902;28;20028;-79
2022/07/10 12:45:29;;;;;;;6.75;5.90;;;;;;;;;;5073484;28;20532;-79
2022/07/10 12:47:56;;;;;;;6.43;5.72;;;;;;;;;;5073423;28;20028;-78
2022/07/10 12:50:25;;;;;;;6.03;5.63;;;;;;;;;;5073609;28;20055;-78
2022/07/10 12:53:07;;;;;;;6.35;5.85;;;;;;;;;;5072675;28;20132;-78
2022/07/10 12:55:41;;;;;;;6.22;5.72;;;;;;;;;;5073411;28;20024;-77
2022/07/10 12:58:12;;;;;;;8.10;5.60;;;;;;;;;;5074739;28;20367;-79
2022/07/10 13:00:50;;;;;;;5.85;5.18;;;;;;;;;;5072984;28;20448;-79
2022/07/10 13:03:22;;;;;;;6.05;5.53;;;;;;;;;;5074452;28;20025;-78
2022/07/10 13:05:49;;;;;;;5.70;5.30;;;;;;;;;;5073124;28;20471;-78
2022/07/10 13:08:21;;;;;;;5.80;5.35;;;;;;;;;;5074039;28;20107;-78
2022/07/10 13:10:54;;;;;;;5.28;4.88;;;;;;;;;;5074036;28;20016;-79
2022/07/10 13:13:20;;;;;;;5.40;5.07;;;;;;;;;;5073880;28;20115;-78
2022/07/10 13:15:50;;;;;;;8.85;8.27;;;;;;;;;;5074548;28;20039;-78
2022/07/10 13:18:17;;;;;;;9.10;8.50;;;;;;;;;;5074172;28;20459;-77
2022/07/10 13:20:44;;;;;;;9.43;8.82;;;;;;;;;;5072680;28;20467;-78
2022/07/10 13:23:10;;;;;;;13.15;11.98;;;;;;;;;;5074156;28;20062;-79
2022/07/10 13:25:40;;;;;;;10.65;9.70;;;;;;;;;;5073828;28;20055;-78
2022/07/10 13:28:07;;;;;;;9.95;9.35;;;;;;;;;;5073731;28;20045;-77
2022/07/10 13:30:33;;;;;;;8.80;8.20;;;;;;;;;;5073699;28;20425;-79
2022/07/10 13:33:00;;;;;;;8.77;8.27;;;;;;;;;;5073972;28;20020;-79
2022/07/10 13:35:29;;;;;;;7.68;7.18;;;;;;;;;;5073615;28;20033;-78
2022/07/10 13:37:55;;;;;;;7.53;7.03;;;;;;;;;;5073814;28;20043;-78
2022/07/10 13:40:22;;;;;;;8.10;7.60;;;;;;;;;;5072447;28;20031;-79